sensor_id;sensor_type;location;lat;lon;timestamp;P1;durP1;ratioP1;P2;durP2;ratioP2
10122;SDS011;5101;49.038;8.710;2023-08-30T00:02:04;3.83;;;3.53;;
10122;SDS011;5101;49.038;8.710;2023-08-30T00:04:29;5.88;;;4.00;;
10122;SDS011;5101;49.038;8.710;2023-08-30T00:06:54;3.75;;;3.42;;
10122;SDS011;5101;49.038;8.710;2023-08-30T00:09:20;3.88;;;3.55;;
10122;SDS011;5101;49.038;8.710;2023-08-30T00:11:45;4.28;;;3.88;;
10122;SDS011;5101;49.038;8.710;2023-08-30T00:14:11;4.57;;;3.97;;
10122;SDS011;5101;49.038;8.710;2023-08-30T00:16:36;4.00;;;3.65;;
10122;SDS011;5101;49.038;8.710;2023-08-30T00:19:03;4.28;;;3.70;;
10122;SDS011;5101;49.038;8.710;2023-08-30T00:21:29;6.50;;;3.92;;
10122;SDS011;5101;49.038;8.710;2023-08-30T00:23:55;7.70;;;3.92;;
10122;SDS011;5101;49.038;8.710;2023-08-30T00:26:20;4.18;;;3.70;;
10122;SDS011;5101;49.038;8.710;2023-08-30T00:28:46;4.75;;;4.22;;
10122;SDS011;5101;49.038;8.710;2023-08-30T00:31:11;3.92;;;3.55;;
10122;SDS011;5101;49.038;8.710;2023-08-30T00:33:36;4.47;;;4.07;;
10122;SDS011;5101;49.038;8.710;2023-08-30T00:36:02;5.25;;;3.78;;
10122;SDS011;5101;49.038;8.710;2023-08-30T00:38:28;7.47;;;4.15;;
10122;SDS011;5101;49.038;8.710;2023-08-30T00:40:54;6.15;;;4.63;;
10122;SDS011;5101;49.038;8.710;2023-08-30T00:43:20;7.78;;;5.47;;
10122;SDS011;5101;49.038;8.710;2023-08-30T00:45:46;6.85;;;4.45;;
10122;SDS011;5101;49.038;8.710;2023-08-30T00:48:13;3.70;;;3.50;;
10122;SDS011;5101;49.038;8.710;2023-08-30T00:50:41;5.40;;;5.00;;
10122;SDS011;5101;49.038;8.710;2023-08-30T00:53:07;7.57;;;4.60;;
10122;SDS011;5101;49.038;8.710;2023-08-30T00:55:36;4.25;;;3.83;;
10122;SDS011;5101;49.038;8.710;2023-08-30T00:58:02;4.22;;;3.92;;
10122;SDS011;5101;49.038;8.710;2023-08-30T01:00:31;4.63;;;4.30;;
10122;SDS011;5101;49.038;8.710;2023-08-30T01:02:58;4.18;;;3.80;;
10122;SDS011;5101;49.038;8.710;2023-08-30T01:05:24;4.13;;;3.80;;
10122;SDS011;5101;49.038;8.710;2023-08-30T01:07:50;4.22;;;3.65;;
10122;SDS011;5101;49.038;8.710;2023-08-30T01:10:17;3.67;;;3.47;;
10122;SDS011;5101;49.038;8.710;2023-08-30T01:12:47;6.13;;;3.53;;
10122;SDS011;5101;49.038;8.710;2023-08-30T01:15:15;7.32;;;4.03;;
10122;SDS011;5101;49.038;8.710;2023-08-30T01:17:48;5.10;;;3.20;;
10122;SDS011;5101;49.038;8.710;2023-08-30T01:20:14;3.50;;;3.17;;
10122;SDS011;5101;49.038;8.710;2023-08-30T01:23:00;3.22;;;3.03;;
10122;SDS011;5101;49.038;8.710;2023-08-30T01:28:01;3.70;;;2.67;;
10122;SDS011;5101;49.038;8.710;2023-08-30T01:30:31;4.90;;;2.97;;
10122;SDS011;5101;49.038;8.710;2023-08-30T01:32:59;3.35;;;3.15;;
10122;SDS011;5101;49.038;8.710;2023-08-30T01:35:26;3.83;;;2.80;;
10122;SDS011;5101;49.038;8.710;2023-08-30T01:37:57;5.13;;;3.85;;
10122;SDS011;5101;49.038;8.710;2023-08-30T01:40:24;3.47;;;3.17;;
10122;SDS011;5101;49.038;8.710;2023-08-30T01:42:53;3.28;;;2.97;;
10122;SDS011;5101;49.038;8.710;2023-08-30T01:45:19;3.28;;;3.00;;
10122;SDS011;5101;49.038;8.710;2023-08-30T01:47:46;3.80;;;3.25;;
10122;SDS011;5101;49.038;8.710;2023-08-30T01:50:13;4.07;;;3.08;;
10122;SDS011;5101;49.038;8.710;2023-08-30T01:52:39;2.97;;;2.58;;
10122;SDS011;5101;49.038;8.710;2023-08-30T01:55:07;2.65;;;2.53;;
10122;SDS011;5101;49.038;8.710;2023-08-30T01:57:33;4.15;;;3.03;;
10122;SDS011;5101;49.038;8.710;2023-08-30T01:59:59;5.47;;;2.92;;
10122;SDS011;5101;49.038;8.710;2023-08-30T02:02:28;2.42;;;2.33;;
10122;SDS011;5101;49.038;8.710;2023-08-30T02:04:54;4.25;;;2.50;;
10122;SDS011;5101;49.038;8.710;2023-08-30T02:07:33;2.67;;;2.47;;
10122;SDS011;5101;49.038;8.710;2023-08-30T02:10:06;3.75;;;3.00;;
10122;SDS011;5101;49.038;8.710;2023-08-30T02:12:39;3.25;;;3.05;;
10122;SDS011;5101;49.038;8.710;2023-08-30T02:15:12;3.03;;;2.55;;
10122;SDS011;5101;49.038;8.710;2023-08-30T02:17:39;2.92;;;2.50;;
10122;SDS011;5101;49.038;8.710;2023-08-30T02:20:05;3.00;;;2.50;;
10122;SDS011;5101;49.038;8.710;2023-08-30T02:22:31;4.50;;;2.60;;
10122;SDS011;5101;49.038;8.710;2023-08-30T02:24:58;2.90;;;2.70;;
10122;SDS011;5101;49.038;8.710;2023-08-30T02:27:24;6.15;;;2.63;;
10122;SDS011;5101;49.038;8.710;2023-08-30T02:29:49;2.55;;;2.38;;
10122;SDS011;5101;49.038;8.710;2023-08-30T02:32:15;5.05;;;2.40;;
10122;SDS011;5101;49.038;8.710;2023-08-30T02:34:45;3.55;;;3.00;;
10122;SDS011;5101;49.038;8.710;2023-08-30T02:37:14;3.13;;;2.92;;
10122;SDS011;5101;49.038;8.710;2023-08-30T02:39:40;3.35;;;2.90;;
10122;SDS011;5101;49.038;8.710;2023-08-30T02:42:05;4.82;;;2.88;;
10122;SDS011;5101;49.038;8.710;2023-08-30T02:44:31;5.85;;;3.33;;
10122;SDS011;5101;49.038;8.710;2023-08-30T02:46:56;4.53;;;2.70;;
10122;SDS011;5101;49.038;8.710;2023-08-30T02:49:22;4.95;;;2.63;;
10122;SDS011;5101;49.038;8.710;2023-08-30T02:51:47;2.95;;;2.70;;
10122;SDS011;5101;49.038;8.710;2023-08-30T02:54:13;5.07;;;3.03;;
10122;SDS011;5101;49.038;8.710;2023-08-30T02:56:39;3.17;;;2.38;;
10122;SDS011;5101;49.038;8.710;2023-08-30T02:59:06;2.90;;;2.70;;
10122;SDS011;5101;49.038;8.710;2023-08-30T03:01:31;3.30;;;2.83;;
10122;SDS011;5101;49.038;8.710;2023-08-30T03:03:57;3.47;;;3.15;;
10122;SDS011;5101;49.038;8.710;2023-08-30T03:06:22;4.53;;;3.13;;
10122;SDS011;5101;49.038;8.710;2023-08-30T03:08:48;4.85;;;2.90;;
10122;SDS011;5101;49.038;8.710;2023-08-30T03:11:14;3.42;;;2.40;;
10122;SDS011;5101;49.038;8.710;2023-08-30T03:13:39;3.50;;;3.20;;
10122;SDS011;5101;49.038;8.710;2023-08-30T03:16:11;3.53;;;3.13;;
10122;SDS011;5101;49.038;8.710;2023-08-30T03:18:38;8.52;;;3.30;;
10122;SDS011;5101;49.038;8.710;2023-08-30T03:21:04;3.45;;;3.15;;
10122;SDS011;5101;49.038;8.710;2023-08-30T03:23:30;3.05;;;2.80;;
10122;SDS011;5101;49.038;8.710;2023-08-30T03:25:57;3.47;;;3.22;;
10122;SDS011;5101;49.038;8.710;2023-08-30T03:28:23;3.15;;;2.95;;
10122;SDS011;5101;49.038;8.710;2023-08-30T03:30:48;3.22;;;3.03;;
10122;SDS011;5101;49.038;8.710;2023-08-30T03:33:14;3.55;;;3.25;;
10122;SDS011;5101;49.038;8.710;2023-08-30T03:35:39;6.70;;;2.85;;
10122;SDS011;5101;49.038;8.710;2023-08-30T03:38:05;3.03;;;2.85;;
10122;SDS011;5101;49.038;8.710;2023-08-30T03:40:30;3.15;;;2.90;;
10122;SDS011;5101;49.038;8.710;2023-08-30T03:42:56;4.00;;;3.30;;
10122;SDS011;5101;49.038;8.710;2023-08-30T03:45:22;3.65;;;3.00;;
10122;SDS011;5101;49.038;8.710;2023-08-30T03:47:47;5.00;;;2.90;;
10122;SDS011;5101;49.038;8.710;2023-08-30T03:50:13;3.80;;;3.10;;
10122;SDS011;5101;49.038;8.710;2023-08-30T03:52:38;3.40;;;3.10;;
10122;SDS011;5101;49.038;8.710;2023-08-30T03:55:04;3.78;;;3.42;;
10122;SDS011;5101;49.038;8.710;2023-08-30T03:57:30;4.50;;;3.70;;
10122;SDS011;5101;49.038;8.710;2023-08-30T03:59:55;4.80;;;3.50;;
10122;SDS011;5101;49.038;8.710;2023-08-30T04:02:21;5.70;;;3.60;;
10122;SDS011;5101;49.038;8.710;2023-08-30T04:04:46;3.88;;;3.58;;
10122;SDS011;5101;49.038;8.710;2023-08-30T04:07:13;5.30;;;3.70;;
10122;SDS011;5101;49.038;8.710;2023-08-30T04:09:38;3.53;;;3.30;;
10122;SDS011;5101;49.038;8.710;2023-08-30T04:12:04;3.65;;;3.45;;
10122;SDS011;5101;49.038;8.710;2023-08-30T04:14:30;3.95;;;3.53;;
10122;SDS011;5101;49.038;8.710;2023-08-30T04:16:56;3.70;;;3.40;;
10122;SDS011;5101;49.038;8.710;2023-08-30T04:19:21;6.50;;;3.67;;
10122;SDS011;5101;49.038;8.710;2023-08-30T04:21:47;3.75;;;3.35;;
10122;SDS011;5101;49.038;8.710;2023-08-30T04:24:12;3.67;;;3.47;;
10122;SDS011;5101;49.038;8.710;2023-08-30T04:26:39;5.35;;;4.00;;
10122;SDS011;5101;49.038;8.710;2023-08-30T04:29:05;4.72;;;3.30;;
10122;SDS011;5101;49.038;8.710;2023-08-30T04:31:30;3.95;;;3.50;;
10122;SDS011;5101;49.038;8.710;2023-08-30T04:33:56;4.90;;;3.60;;
10122;SDS011;5101;49.038;8.710;2023-08-30T04:36:22;4.90;;;3.10;;
10122;SDS011;5101;49.038;8.710;2023-08-30T04:38:48;3.90;;;3.60;;
10122;SDS011;5101;49.038;8.710;2023-08-30T04:41:13;6.65;;;3.63;;
10122;SDS011;5101;49.038;8.710;2023-08-30T04:43:39;3.47;;;3.28;;
10122;SDS011;5101;49.038;8.710;2023-08-30T04:46:04;3.83;;;3.58;;
10122;SDS011;5101;49.038;8.710;2023-08-30T04:48:30;3.60;;;3.40;;
10122;SDS011;5101;49.038;8.710;2023-08-30T04:51:01;4.00;;;3.22;;
10122;SDS011;5101;49.038;8.710;2023-08-30T04:53:28;4.43;;;3.60;;
10122;SDS011;5101;49.038;8.710;2023-08-30T04:55:54;4.18;;;3.70;;
10122;SDS011;5101;49.038;8.710;2023-08-30T04:58:19;3.25;;;3.05;;
10122;SDS011;5101;49.038;8.710;2023-08-30T05:00:45;3.90;;;3.60;;
10122;SDS011;5101;49.038;8.710;2023-08-30T05:03:10;4.05;;;3.70;;
10122;SDS011;5101;49.038;8.710;2023-08-30T05:05:36;5.55;;;4.13;;
10122;SDS011;5101;49.038;8.710;2023-08-30T05:08:02;3.78;;;3.55;;
10122;SDS011;5101;49.038;8.710;2023-08-30T05:10:28;3.83;;;3.50;;
10122;SDS011;5101;49.038;8.710;2023-08-30T05:12:54;4.20;;;3.50;;
10122;SDS011;5101;49.038;8.710;2023-08-30T05:15:19;4.65;;;3.40;;
10122;SDS011;5101;49.038;8.710;2023-08-30T05:17:45;3.75;;;3.55;;
10122;SDS011;5101;49.038;8.710;2023-08-30T05:20:11;5.00;;;3.58;;
10122;SDS011;5101;49.038;8.710;2023-08-30T05:22:36;6.90;;;5.28;;
10122;SDS011;5101;49.038;8.710;2023-08-30T05:25:02;5.57;;;4.00;;
10122;SDS011;5101;49.038;8.710;2023-08-30T05:27:27;3.28;;;3.08;;
10122;SDS011;5101;49.038;8.710;2023-08-30T05:29:53;3.30;;;3.10;;
10122;SDS011;5101;49.038;8.710;2023-08-30T05:32:21;3.67;;;3.38;;
10122;SDS011;5101;49.038;8.710;2023-08-30T05:34:46;3.70;;;3.40;;
10122;SDS011;5101;49.038;8.710;2023-08-30T05:37:12;3.90;;;3.60;;
10122;SDS011;5101;49.038;8.710;2023-08-30T05:39:38;4.57;;;4.13;;
10122;SDS011;5101;49.038;8.710;2023-08-30T05:42:03;3.88;;;3.60;;
10122;SDS011;5101;49.038;8.710;2023-08-30T05:44:29;6.15;;;3.55;;
10122;SDS011;5101;49.038;8.710;2023-08-30T05:46:55;3.95;;;3.33;;
10122;SDS011;5101;49.038;8.710;2023-08-30T05:49:20;8.02;;;4.05;;
10122;SDS011;5101;49.038;8.710;2023-08-30T05:51:46;4.47;;;3.97;;
10122;SDS011;5101;49.038;8.710;2023-08-30T05:54:12;5.90;;;5.30;;
10122;SDS011;5101;49.038;8.710;2023-08-30T05:56:38;6.45;;;5.85;;
10122;SDS011;5101;49.038;8.710;2023-08-30T05:59:03;6.18;;;5.55;;
10122;SDS011;5101;49.038;8.710;2023-08-30T06:01:29;8.68;;;5.95;;
10122;SDS011;5101;49.038;8.710;2023-08-30T06:03:54;5.70;;;5.20;;
10122;SDS011;5101;49.038;8.710;2023-08-30T06:06:20;4.80;;;4.40;;
10122;SDS011;5101;49.038;8.710;2023-08-30T06:08:45;6.28;;;5.07;;
10122;SDS011;5101;49.038;8.710;2023-08-30T06:11:11;5.57;;;5.07;;
10122;SDS011;5101;49.038;8.710;2023-08-30T06:13:37;6.22;;;4.75;;
10122;SDS011;5101;49.038;8.710;2023-08-30T06:16:03;4.03;;;3.72;;
10122;SDS011;5101;49.038;8.710;2023-08-30T06:18:29;4.55;;;4.13;;
10122;SDS011;5101;49.038;8.710;2023-08-30T06:20:56;4.38;;;3.63;;
10122;SDS011;5101;49.038;8.710;2023-08-30T06:23:22;6.78;;;3.92;;
10122;SDS011;5101;49.038;8.710;2023-08-30T06:25:54;4.15;;;3.75;;
10122;SDS011;5101;49.038;8.710;2023-08-30T06:28:21;4.20;;;3.80;;
10122;SDS011;5101;49.038;8.710;2023-08-30T06:30:46;5.07;;;3.55;;
10122;SDS011;5101;49.038;8.710;2023-08-30T06:33:12;3.50;;;3.30;;
10122;SDS011;5101;49.038;8.710;2023-08-30T06:35:37;3.10;;;2.80;;
10122;SDS011;5101;49.038;8.710;2023-08-30T06:38:07;3.17;;;2.80;;
10122;SDS011;5101;49.038;8.710;2023-08-30T06:40:33;3.13;;;2.83;;
10122;SDS011;5101;49.038;8.710;2023-08-30T06:42:58;5.70;;;3.05;;
10122;SDS011;5101;49.038;8.710;2023-08-30T06:45:24;6.35;;;2.92;;
10122;SDS011;5101;49.038;8.710;2023-08-30T06:47:50;5.90;;;3.28;;
10122;SDS011;5101;49.038;8.710;2023-08-30T06:50:17;3.03;;;2.55;;
10122;SDS011;5101;49.038;8.710;2023-08-30T06:52:42;4.45;;;2.90;;
10122;SDS011;5101;49.038;8.710;2023-08-30T06:55:08;2.63;;;2.42;;
10122;SDS011;5101;49.038;8.710;2023-08-30T06:57:34;7.10;;;3.10;;
10122;SDS011;5101;49.038;8.710;2023-08-30T07:00:00;4.53;;;3.40;;
10122;SDS011;5101;49.038;8.710;2023-08-30T07:02:32;4.43;;;3.00;;
10122;SDS011;5101;49.038;8.710;2023-08-30T07:04:58;2.75;;;2.55;;
10122;SDS011;5101;49.038;8.710;2023-08-30T07:07:24;2.65;;;2.17;;
10122;SDS011;5101;49.038;8.710;2023-08-30T07:09:49;4.53;;;2.28;;
10122;SDS011;5101;49.038;8.710;2023-08-30T07:12:15;2.83;;;2.60;;
10122;SDS011;5101;49.038;8.710;2023-08-30T07:14:41;3.28;;;2.20;;
10122;SDS011;5101;49.038;8.710;2023-08-30T07:17:06;4.45;;;2.22;;
10122;SDS011;5101;49.038;8.710;2023-08-30T07:19:32;2.53;;;2.33;;
10122;SDS011;5101;49.038;8.710;2023-08-30T07:21:57;3.30;;;2.00;;
10122;SDS011;5101;49.038;8.710;2023-08-30T07:24:23;2.78;;;1.75;;
10122;SDS011;5101;49.038;8.710;2023-08-30T07:26:48;1.80;;;1.70;;
10122;SDS011;5101;49.038;8.710;2023-08-30T07:29:14;2.95;;;2.00;;
10122;SDS011;5101;49.038;8.710;2023-08-30T07:31:39;3.20;;;1.73;;
10122;SDS011;5101;49.038;8.710;2023-08-30T07:34:06;3.15;;;1.90;;
10122;SDS011;5101;49.038;8.710;2023-08-30T07:36:32;3.97;;;1.63;;
10122;SDS011;5101;49.038;8.710;2023-08-30T07:38:58;2.83;;;1.50;;
10122;SDS011;5101;49.038;8.710;2023-08-30T07:41:23;3.67;;;1.70;;
10122;SDS011;5101;49.038;8.710;2023-08-30T07:43:49;1.67;;;1.58;;
10122;SDS011;5101;49.038;8.710;2023-08-30T07:46:14;3.63;;;1.80;;
10122;SDS011;5101;49.038;8.710;2023-08-30T07:48:40;1.60;;;1.50;;
10122;SDS011;5101;49.038;8.710;2023-08-30T07:51:05;2.05;;;1.63;;
10122;SDS011;5101;49.038;8.710;2023-08-30T07:53:31;2.05;;;1.20;;
10122;SDS011;5101;49.038;8.710;2023-08-30T07:55:56;1.58;;;1.45;;
10122;SDS011;5101;49.038;8.710;2023-08-30T07:58:22;1.42;;;1.33;;
10122;SDS011;5101;49.038;8.710;2023-08-30T08:00:54;3.25;;;1.40;;
10122;SDS011;5101;49.038;8.710;2023-08-30T08:03:23;1.40;;;1.30;;
10122;SDS011;5101;49.038;8.710;2023-08-30T08:05:48;1.42;;;1.33;;
10122;SDS011;5101;49.038;8.710;2023-08-30T08:08:14;2.20;;;1.27;;
10122;SDS011;5101;49.038;8.710;2023-08-30T08:10:40;2.40;;;1.45;;
10122;SDS011;5101;49.038;8.710;2023-08-30T08:13:06;1.35;;;1.27;;
10122;SDS011;5101;49.038;8.710;2023-08-30T08:15:32;1.92;;;1.17;;
10122;SDS011;5101;49.038;8.710;2023-08-30T08:17:58;1.58;;;1.48;;
10122;SDS011;5101;49.038;8.710;2023-08-30T08:20:25;1.60;;;1.50;;
10122;SDS011;5101;49.038;8.710;2023-08-30T08:22:51;2.15;;;1.30;;
10122;SDS011;5101;49.038;8.710;2023-08-30T08:25:16;2.33;;;1.40;;
10122;SDS011;5101;49.038;8.710;2023-08-30T08:27:42;1.45;;;1.35;;
10122;SDS011;5101;49.038;8.710;2023-08-30T08:30:08;1.45;;;1.35;;
10122;SDS011;5101;49.038;8.710;2023-08-30T08:32:34;1.27;;;1.27;;
10122;SDS011;5101;49.038;8.710;2023-08-30T08:35:00;1.67;;;1.25;;
10122;SDS011;5101;49.038;8.710;2023-08-30T08:37:26;1.45;;;1.30;;
10122;SDS011;5101;49.038;8.710;2023-08-30T08:39:52;3.05;;;1.38;;
10122;SDS011;5101;49.038;8.710;2023-08-30T08:42:18;1.50;;;1.40;;
10122;SDS011;5101;49.038;8.710;2023-08-30T08:44:47;1.50;;;1.40;;
10122;SDS011;5101;49.038;8.710;2023-08-30T08:47:19;1.80;;;1.10;;
10122;SDS011;5101;49.038;8.710;2023-08-30T08:49:46;3.65;;;1.45;;
10122;SDS011;5101;49.038;8.710;2023-08-30T08:52:13;1.83;;;1.20;;
10122;SDS011;5101;49.038;8.710;2023-08-30T08:54:40;1.67;;;1.13;;
10122;SDS011;5101;49.038;8.710;2023-08-30T08:57:06;1.50;;;1.40;;
10122;SDS011;5101;49.038;8.710;2023-08-30T08:59:32;2.65;;;1.30;;
10122;SDS011;5101;49.038;8.710;2023-08-30T09:01:59;1.58;;;1.20;;
10122;SDS011;5101;49.038;8.710;2023-08-30T09:04:25;3.05;;;1.42;;
10122;SDS011;5101;49.038;8.710;2023-08-30T09:06:51;2.40;;;1.42;;
10122;SDS011;5101;49.038;8.710;2023-08-30T09:09:16;1.88;;;1.05;;
10122;SDS011;5101;49.038;8.710;2023-08-30T09:11:42;1.70;;;1.40;;
10122;SDS011;5101;49.038;8.710;2023-08-30T09:14:11;3.53;;;1.45;;
10122;SDS011;5101;49.038;8.710;2023-08-30T09:16:36;7.03;;;1.50;;
10122;SDS011;5101;49.038;8.710;2023-08-30T09:19:03;2.72;;;1.30;;
10122;SDS011;5101;49.038;8.710;2023-08-30T09:21:29;1.73;;;1.10;;
10122;SDS011;5101;49.038;8.710;2023-08-30T09:26:23;2.40;;;1.52;;
10122;SDS011;5101;49.038;8.710;2023-08-30T09:28:49;2.97;;;1.77;;
10122;SDS011;5101;49.038;8.710;2023-08-30T09:31:18;1.75;;;1.30;;
10122;SDS011;5101;49.038;8.710;2023-08-30T09:33:44;1.52;;;1.42;;
10122;SDS011;5101;49.038;8.710;2023-08-30T09:36:10;2.95;;;1.45;;
10122;SDS011;5101;49.038;8.710;2023-08-30T09:38:36;1.60;;;1.50;;
10122;SDS011;5101;49.038;8.710;2023-08-30T09:41:02;3.72;;;1.50;;
10122;SDS011;5101;49.038;8.710;2023-08-30T09:43:29;3.75;;;1.60;;
10122;SDS011;5101;49.038;8.710;2023-08-30T09:45:54;4.72;;;2.97;;
10122;SDS011;5101;49.038;8.710;2023-08-30T09:48:20;3.65;;;1.67;;
10122;SDS011;5101;49.038;8.710;2023-08-30T09:50:52;2.70;;;1.55;;
10122;SDS011;5101;49.038;8.710;2023-08-30T09:53:20;3.97;;;1.50;;
10122;SDS011;5101;49.038;8.710;2023-08-30T09:55:48;1.70;;;1.60;;
10122;SDS011;5101;49.038;8.710;2023-08-30T09:58:16;2.08;;;1.73;;
10122;SDS011;5101;49.038;8.710;2023-08-30T10:00:42;1.70;;;1.60;;
10122;SDS011;5101;49.038;8.710;2023-08-30T10:03:08;1.50;;;1.40;;
10122;SDS011;5101;49.038;8.710;2023-08-30T10:05:35;1.90;;;1.70;;
10122;SDS011;5101;49.038;8.710;2023-08-30T10:08:01;1.65;;;1.40;;
10122;SDS011;5101;49.038;8.710;2023-08-30T10:10:29;1.83;;;1.67;;
10122;SDS011;5101;49.038;8.710;2023-08-30T10:12:56;4.07;;;1.60;;
10122;SDS011;5101;49.038;8.710;2023-08-30T10:15:22;3.47;;;1.52;;
10122;SDS011;5101;49.038;8.710;2023-08-30T10:17:51;2.63;;;1.50;;
10122;SDS011;5101;49.038;8.710;2023-08-30T10:20:19;1.63;;;1.52;;
10122;SDS011;5101;49.038;8.710;2023-08-30T10:22:45;1.58;;;1.25;;
10122;SDS011;5101;49.038;8.710;2023-08-30T10:25:15;1.42;;;1.33;;
10122;SDS011;5101;49.038;8.710;2023-08-30T10:27:46;2.88;;;1.10;;
10122;SDS011;5101;49.038;8.710;2023-08-30T10:30:12;1.30;;;1.20;;
10122;SDS011;5101;49.038;8.710;2023-08-30T10:32:40;1.23;;;1.23;;
10122;SDS011;5101;49.038;8.710;2023-08-30T10:35:06;1.63;;;1.20;;
10122;SDS011;5101;49.038;8.710;2023-08-30T10:37:36;1.85;;;1.50;;
10122;SDS011;5101;49.038;8.710;2023-08-30T10:40:01;1.13;;;1.00;;
10122;SDS011;5101;49.038;8.710;2023-08-30T10:42:30;1.90;;;1.20;;
10122;SDS011;5101;49.038;8.710;2023-08-30T10:45:00;1.67;;;1.20;;
10122;SDS011;5101;49.038;8.710;2023-08-30T10:47:30;1.60;;;1.50;;
10122;SDS011;5101;49.038;8.710;2023-08-30T10:50:00;1.30;;;1.17;;
10122;SDS011;5101;49.038;8.710;2023-08-30T10:52:29;3.25;;;1.20;;
10122;SDS011;5101;49.038;8.710;2023-08-30T10:55:05;4.57;;;1.45;;
10122;SDS011;5101;49.038;8.710;2023-08-30T10:57:32;1.00;;;1.00;;
10122;SDS011;5101;49.038;8.710;2023-08-30T11:00:08;1.88;;;1.10;;
10122;SDS011;5101;49.038;8.710;2023-08-30T11:02:43;2.78;;;1.25;;
10122;SDS011;5101;49.038;8.710;2023-08-30T11:05:15;1.10;;;1.10;;
10122;SDS011;5101;49.038;8.710;2023-08-30T11:07:44;1.38;;;1.23;;
10122;SDS011;5101;49.038;8.710;2023-08-30T11:10:10;1.10;;;1.00;;
10122;SDS011;5101;49.038;8.710;2023-08-30T11:12:36;1.90;;;1.23;;
10122;SDS011;5101;49.038;8.710;2023-08-30T11:15:04;2.63;;;1.27;;
10122;SDS011;5101;49.038;8.710;2023-08-30T11:17:33;1.52;;;1.00;;
10122;SDS011;5101;49.038;8.710;2023-08-30T11:20:12;1.05;;;0.90;;
10122;SDS011;5101;49.038;8.710;2023-08-30T11:22:39;2.53;;;1.20;;
10122;SDS011;5101;49.038;8.710;2023-08-30T11:25:11;1.17;;;1.08;;
10122;SDS011;5101;49.038;8.710;2023-08-30T11:27:38;0.90;;;0.90;;
10122;SDS011;5101;49.038;8.710;2023-08-30T11:30:04;1.67;;;1.00;;
10122;SDS011;5101;49.038;8.710;2023-08-30T11:32:41;1.58;;;0.90;;
10122;SDS011;5101;49.038;8.710;2023-08-30T11:35:10;1.00;;;1.00;;
10122;SDS011;5101;49.038;8.710;2023-08-30T11:37:36;1.13;;;0.90;;
10122;SDS011;5101;49.038;8.710;2023-08-30T11:40:02;1.80;;;1.02;;
10122;SDS011;5101;49.038;8.710;2023-08-30T11:42:29;0.73;;;0.73;;
10122;SDS011;5101;49.038;8.710;2023-08-30T11:44:56;2.67;;;1.05;;
10122;SDS011;5101;49.038;8.710;2023-08-30T11:47:23;1.15;;;1.00;;
10122;SDS011;5101;49.038;8.710;2023-08-30T11:49:50;2.05;;;1.17;;
10122;SDS011;5101;49.038;8.710;2023-08-30T11:52:19;0.90;;;0.90;;
10122;SDS011;5101;49.038;8.710;2023-08-30T11:54:47;1.85;;;1.08;;
10122;SDS011;5101;49.038;8.710;2023-08-30T11:57:13;1.02;;;0.88;;
10122;SDS011;5101;49.038;8.710;2023-08-30T11:59:38;2.83;;;1.00;;
10122;SDS011;5101;49.038;8.710;2023-08-30T12:02:04;0.93;;;0.93;;
10122;SDS011;5101;49.038;8.710;2023-08-30T12:04:31;4.53;;;1.00;;
10122;SDS011;5101;49.038;8.710;2023-08-30T12:06:56;2.30;;;0.93;;
10122;SDS011;5101;49.038;8.710;2023-08-30T12:09:23;1.10;;;0.77;;
10122;SDS011;5101;49.038;8.710;2023-08-30T12:12:04;0.63;;;0.63;;
10122;SDS011;5101;49.038;8.710;2023-08-30T12:14:36;0.80;;;0.70;;
10122;SDS011;5101;49.038;8.710;2023-08-30T12:17:02;1.88;;;0.90;;
10122;SDS011;5101;49.038;8.710;2023-08-30T12:19:28;1.98;;;0.98;;
10122;SDS011;5101;49.038;8.710;2023-08-30T12:21:54;1.52;;;1.00;;
10122;SDS011;5101;49.038;8.710;2023-08-30T12:24:19;1.38;;;0.95;;
10122;SDS011;5101;49.038;8.710;2023-08-30T12:26:45;2.92;;;0.80;;
10122;SDS011;5101;49.038;8.710;2023-08-30T12:29:10;1.23;;;0.77;;
10122;SDS011;5101;49.038;8.710;2023-08-30T12:31:36;1.30;;;0.85;;
10122;SDS011;5101;49.038;8.710;2023-08-30T12:34:02;1.17;;;1.00;;
10122;SDS011;5101;49.038;8.710;2023-08-30T12:36:28;2.03;;;1.05;;
10122;SDS011;5101;49.038;8.710;2023-08-30T12:38:54;1.00;;;0.75;;
10122;SDS011;5101;49.038;8.710;2023-08-30T12:41:19;8.68;;;1.00;;
10122;SDS011;5101;49.038;8.710;2023-08-30T12:43:48;3.10;;;0.82;;
10122;SDS011;5101;49.038;8.710;2023-08-30T12:46:13;1.85;;;0.90;;
10122;SDS011;5101;49.038;8.710;2023-08-30T12:48:39;4.97;;;1.20;;
10122;SDS011;5101;49.038;8.710;2023-08-30T12:51:04;1.27;;;0.70;;
10122;SDS011;5101;49.038;8.710;2023-08-30T12:53:30;1.35;;;1.00;;
10122;SDS011;5101;49.038;8.710;2023-08-30T12:55:55;1.38;;;0.80;;
10122;SDS011;5101;49.038;8.710;2023-08-30T12:58:21;2.42;;;1.10;;
10122;SDS011;5101;49.038;8.710;2023-08-30T13:00:46;0.90;;;0.90;;
10122;SDS011;5101;49.038;8.710;2023-08-30T13:03:12;0.82;;;0.82;;
10122;SDS011;5101;49.038;8.710;2023-08-30T13:05:37;1.35;;;0.90;;
10122;SDS011;5101;49.038;8.710;2023-08-30T13:08:03;1.02;;;0.93;;
10122;SDS011;5101;49.038;8.710;2023-08-30T13:10:28;1.02;;;0.95;;
10122;SDS011;5101;49.038;8.710;2023-08-30T13:12:54;1.00;;;1.00;;
10122;SDS011;5101;49.038;8.710;2023-08-30T13:15:20;1.10;;;0.85;;
10122;SDS011;5101;49.038;8.710;2023-08-30T13:17:46;1.65;;;0.98;;
10122;SDS011;5101;49.038;8.710;2023-08-30T13:20:11;2.90;;;1.20;;
10122;SDS011;5101;49.038;8.710;2023-08-30T13:22:37;0.88;;;0.88;;
10122;SDS011;5101;49.038;8.710;2023-08-30T13:25:02;2.25;;;0.80;;
10122;SDS011;5101;49.038;8.710;2023-08-30T13:27:29;1.02;;;1.00;;
10122;SDS011;5101;49.038;8.710;2023-08-30T13:29:54;1.05;;;0.95;;
10122;SDS011;5101;49.038;8.710;2023-08-30T13:32:20;1.13;;;1.00;;
10122;SDS011;5101;49.038;8.710;2023-08-30T13:34:46;0.95;;;0.90;;
10122;SDS011;5101;49.038;8.710;2023-08-30T13:37:12;1.40;;;0.90;;
10122;SDS011;5101;49.038;8.710;2023-08-30T13:39:38;2.85;;;0.80;;
10122;SDS011;5101;49.038;8.710;2023-08-30T13:42:04;0.85;;;0.80;;
10122;SDS011;5101;49.038;8.710;2023-08-30T13:44:30;4.03;;;1.15;;
10122;SDS011;5101;49.038;8.710;2023-08-30T13:46:57;1.55;;;0.90;;
10122;SDS011;5101;49.038;8.710;2023-08-30T13:49:22;1.75;;;1.13;;
10122;SDS011;5101;49.038;8.710;2023-08-30T13:51:48;2.30;;;0.90;;
10122;SDS011;5101;49.038;8.710;2023-08-30T13:54:13;1.20;;;1.10;;
10122;SDS011;5101;49.038;8.710;2023-08-30T13:56:39;1.17;;;0.80;;
10122;SDS011;5101;49.038;8.710;2023-08-30T13:59:04;1.00;;;0.70;;
10122;SDS011;5101;49.038;8.710;2023-08-30T14:01:33;0.85;;;0.80;;
10122;SDS011;5101;49.038;8.710;2023-08-30T14:04:00;1.10;;;0.95;;
10122;SDS011;5101;49.038;8.710;2023-08-30T14:06:25;1.13;;;0.90;;
10122;SDS011;5101;49.038;8.710;2023-08-30T14:08:51;2.22;;;0.90;;
10122;SDS011;5101;49.038;8.710;2023-08-30T14:11:16;1.63;;;1.10;;
10122;SDS011;5101;49.038;8.710;2023-08-30T14:13:42;0.80;;;0.80;;
10122;SDS011;5101;49.038;8.710;2023-08-30T14:16:07;1.20;;;0.90;;
10122;SDS011;5101;49.038;8.710;2023-08-30T14:18:35;1.25;;;1.02;;
10122;SDS011;5101;49.038;8.710;2023-08-30T14:21:01;0.80;;;0.80;;
10122;SDS011;5101;49.038;8.710;2023-08-30T14:23:27;2.70;;;0.80;;
10122;SDS011;5101;49.038;8.710;2023-08-30T14:26:04;1.20;;;1.10;;
10122;SDS011;5101;49.038;8.710;2023-08-30T14:28:38;1.27;;;1.00;;
10122;SDS011;5101;49.038;8.710;2023-08-30T14:31:08;0.82;;;0.70;;
10122;SDS011;5101;49.038;8.710;2023-08-30T14:33:34;4.07;;;0.82;;
10122;SDS011;5101;49.038;8.710;2023-08-30T14:36:00;3.88;;;0.80;;
10122;SDS011;5101;49.038;8.710;2023-08-30T14:38:28;1.02;;;0.90;;
10122;SDS011;5101;49.038;8.710;2023-08-30T14:40:55;2.35;;;0.88;;
10122;SDS011;5101;49.038;8.710;2023-08-30T14:43:25;2.70;;;1.02;;
10122;SDS011;5101;49.038;8.710;2023-08-30T14:45:51;1.02;;;1.00;;
10122;SDS011;5101;49.038;8.710;2023-08-30T14:48:23;0.80;;;0.80;;
10122;SDS011;5101;49.038;8.710;2023-08-30T14:50:50;0.98;;;0.90;;
10122;SDS011;5101;49.038;8.710;2023-08-30T14:53:16;2.35;;;0.90;;
10122;SDS011;5101;49.038;8.710;2023-08-30T14:55:43;1.35;;;1.00;;
10122;SDS011;5101;49.038;8.710;2023-08-30T14:58:09;2.25;;;1.10;;
10122;SDS011;5101;49.038;8.710;2023-08-30T15:00:35;2.90;;;1.00;;
10122;SDS011;5101;49.038;8.710;2023-08-30T15:03:00;2.35;;;1.15;;